createdAt,value
2023-03-24T00:00:30.087Z,5.90
2023-03-24T00:03:01.841Z,7.50
2023-03-24T00:05:30.568Z,6.43
2023-03-24T00:08:02.167Z,5.15
2023-03-24T00:10:30.943Z,4.57
2023-03-24T00:12:58.779Z,5.80
2023-03-24T00:15:25.943Z,7.28
2023-03-24T00:17:56.342Z,10.90
2023-03-24T00:20:24.982Z,8.80
2023-03-24T00:22:57.333Z,11.52
2023-03-24T00:25:30.166Z,9.88
2023-03-24T00:27:58.125Z,11.88
2023-03-24T00:30:26.327Z,7.95
2023-03-24T00:32:53.902Z,8.27
2023-03-24T00:35:21.249Z,8.20
2023-03-24T00:37:52.167Z,8.45
2023-03-24T00:40:21.250Z,6.53
2023-03-24T00:42:49.535Z,5.47
2023-03-24T00:45:23.845Z,6.93
2023-03-24T00:47:54.476Z,5.97
2023-03-24T00:50:27.621Z,8.35
2023-03-24T00:52:55.357Z,7.03
2023-03-24T00:55:23.262Z,8.45
2023-03-24T00:57:50.946Z,8.30
2023-03-24T01:00:24.674Z,7.13
2023-03-24T01:02:54.130Z,5.75
2023-03-24T01:05:28.343Z,7.15
2023-03-24T01:08:04.038Z,8.52
2023-03-24T01:10:33.836Z,7.57
2023-03-24T01:13:01.969Z,6.45
2023-03-24T01:15:33.882Z,7.05
2023-03-24T01:18:03.892Z,6.80
2023-03-24T01:20:35.896Z,7.28
2023-03-24T01:23:05.438Z,10.57
2023-03-24T01:25:32.671Z,8.13
2023-03-24T01:28:02.831Z,10.63
2023-03-24T01:30:31.050Z,8.40
2023-03-24T01:32:58.101Z,8.45
2023-03-24T01:35:28.541Z,5.20
2023-03-24T01:37:56.598Z,10.30
2023-03-24T01:40:30.538Z,5.97
2023-03-24T01:42:57.931Z,5.97
2023-03-24T01:45:43.303Z,6.55
2023-03-24T01:48:13.275Z,5.32
2023-03-24T01:50:42.375Z,5.55
2023-03-24T01:53:09.532Z,6.90
2023-03-24T01:55:37.799Z,8.63
2023-03-24T01:58:05.461Z,6.53
2023-03-24T02:00:32.266Z,6.75
2023-03-24T02:03:03.656Z,5.60
2023-03-24T02:05:35.620Z,7.00
2023-03-24T02:08:28.470Z,5.63
2023-03-24T02:10:57.105Z,6.97
2023-03-24T02:13:23.928Z,12.93
2023-03-24T02:16:00.236Z,7.97
2023-03-24T02:19:04.944Z,12.13
2023-03-24T02:21:47.051Z,8.57
2023-03-24T02:24:44.174Z,9.18
2023-03-24T02:28:01.632Z,9.70
2023-03-24T02:30:43.987Z,8.48
2023-03-24T02:33:21.149Z,9.57
2023-03-24T02:36:19.240Z,12.15
2023-03-24T02:39:38.282Z,12.18
2023-03-24T02:42:26.933Z,7.72
2023-03-24T02:45:09.157Z,9.50
2023-03-24T02:48:20.643Z,11.65
2023-03-24T02:51:06.975Z,9.38
2023-03-24T02:54:22.072Z,8.27
2023-03-24T02:57:17.934Z,5.57
2023-03-24T02:59:54.791Z,6.22
2023-03-24T03:02:34.967Z,6.25
2023-03-24T03:05:07.435Z,5.47
2023-03-24T03:07:39.202Z,9.02
2023-03-24T03:10:18.722Z,7.15
2023-03-24T03:12:52.349Z,7.88
2023-03-24T03:15:32.736Z,8.55
2023-03-24T03:18:10.598Z,8.60
2023-03-24T03:20:50.990Z,6.45
2023-03-24T03:23:26.864Z,6.40
2023-03-24T03:26:02.528Z,9.38
2023-03-24T03:28:30.513Z,6.78
2023-03-24T03:31:01.841Z,8.02
2023-03-24T03:33:39.616Z,11.95
2023-03-24T03:36:23.689Z,12.82
2023-03-24T03:39:20.576Z,18.17
2023-03-24T03:41:55.214Z,15.88
2023-03-24T03:44:29.542Z,12.85
2023-03-24T03:46:56.443Z,13.00
2023-03-24T03:49:26.042Z,13.45
2023-03-24T03:51:54.294Z,12.10
2023-03-24T03:54:23.019Z,11.63
2023-03-24T03:56:50.867Z,13.85
2023-03-24T03:59:37.386Z,13.65
2023-03-24T04:02:49.152Z,13.60
2023-03-24T04:05:18.901Z,11.27
2023-03-24T04:08:08.720Z,7.15
2023-03-24T04:10:54.254Z,7.50
2023-03-24T04:13:49.678Z,8.65
2023-03-24T04:17:02.143Z,8.82
2023-03-24T04:19:44.624Z,12.77
2023-03-24T04:22:31.645Z,9.20
2023-03-24T04:25:10.041Z,11.10
2023-03-24T04:27:49.631Z,7.45
2023-03-24T04:30:23.794Z,9.52
2023-03-24T04:33:08.978Z,13.93
2023-03-24T04:38:33.002Z,13.75
2023-03-24T04:41:01.493Z,9.77
2023-03-24T04:43:43.076Z,14.98
2023-03-24T04:46:10.564Z,9.77
2023-03-24T04:48:50.148Z,9.73
2023-03-24T04:51:44.754Z,9.63
2023-03-24T04:54:13.590Z,9.27
2023-03-24T04:57:11.917Z,8.93
2023-03-24T04:59:38.952Z,10.93
2023-03-24T05:02:05.870Z,10.77
2023-03-24T05:04:37.486Z,13.32
2023-03-24T05:07:14.294Z,12.88
2023-03-24T05:09:45.955Z,12.80
2023-03-24T05:12:13.207Z,13.40
2023-03-24T05:14:43.255Z,16.80
2023-03-24T05:17:20.742Z,16.33
2023-03-24T05:22:43.990Z,24.80
2023-03-24T05:25:11.366Z,18.65
2023-03-24T05:27:38.423Z,17.10
2023-03-24T05:30:07.585Z,19.73
2023-03-24T05:32:34.660Z,19.40
2023-03-24T05:35:01.712Z,20.27
2023-03-24T05:37:28.618Z,20.52
2023-03-24T05:40:00.763Z,19.67
2023-03-24T05:42:27.647Z,21.13
2023-03-24T05:44:54.570Z,20.05
2023-03-24T05:47:21.476Z,25.83
2023-03-24T05:49:48.285Z,22.05
2023-03-24T05:52:16.971Z,21.98
2023-03-24T05:54:43.902Z,18.33
2023-03-24T05:57:18.687Z,18.77
2023-03-24T05:59:48.699Z,22.23
2023-03-24T06:02:15.816Z,16.55
2023-03-24T06:04:48.860Z,15.57
2023-03-24T06:10:07.725Z,17.90
2023-03-24T06:12:34.989Z,15.48
2023-03-24T06:15:02.057Z,16.42
2023-03-24T06:20:21.885Z,17.85
2023-03-24T06:22:57.065Z,17.30
2023-03-24T06:25:28.979Z,17.92
2023-03-24T06:27:56.147Z,19.23
2023-03-24T06:30:41.957Z,20.17
2023-03-24T06:33:09.574Z,17.58
2023-03-24T06:35:46.785Z,15.38
2023-03-24T06:38:15.524Z,17.63
2023-03-24T06:40:45.611Z,22.98
2023-03-24T06:43:12.478Z,19.27
2023-03-24T06:45:40.766Z,17.70
2023-03-24T06:48:07.761Z,15.65
2023-03-24T06:50:35.609Z,18.67
2023-03-24T06:53:03.654Z,15.45
2023-03-24T06:55:30.448Z,21.00
2023-03-24T06:57:57.263Z,20.58
2023-03-24T07:00:26.384Z,20.02
2023-03-24T07:02:53.573Z,17.17
2023-03-24T07:05:20.790Z,23.85
2023-03-24T07:10:23.054Z,18.50
2023-03-24T07:12:49.985Z,20.20
2023-03-24T07:15:17.253Z,22.33
2023-03-24T07:17:44.071Z,17.13
2023-03-24T07:20:11.406Z,16.77
2023-03-24T07:22:39.023Z,22.30
2023-03-24T07:27:48.681Z,18.45
2023-03-24T07:30:15.646Z,16.00
2023-03-24T07:32:42.545Z,17.27
2023-03-24T07:35:12.459Z,14.38
2023-03-24T07:37:41.315Z,19.35
2023-03-24T07:40:12.429Z,21.58
2023-03-24T07:42:41.058Z,18.00
2023-03-24T07:45:10.885Z,19.73
2023-03-24T07:47:39.155Z,17.65
2023-03-24T07:50:11.165Z,16.17
2023-03-24T07:52:41.632Z,14.23
2023-03-24T07:55:14.194Z,17.73
2023-03-24T07:57:46.775Z,14.75
2023-03-24T08:00:18.349Z,15.38
2023-03-24T08:02:48.173Z,16.35
2023-03-24T08:05:17.462Z,16.10
2023-03-24T08:07:53.576Z,17.40
2023-03-24T08:10:23.567Z,17.35
2023-03-24T08:12:51.379Z,15.65
2023-03-24T08:15:19.160Z,17.58
2023-03-24T08:17:49.279Z,17.70
2023-03-24T08:20:16.764Z,14.18
2023-03-24T08:22:46.505Z,13.70
2023-03-24T08:25:13.595Z,11.57
2023-03-24T08:27:43.634Z,14.50
2023-03-24T08:30:14.635Z,14.13
2023-03-24T08:32:56.130Z,12.48
2023-03-24T08:35:26.658Z,13.32
2023-03-24T08:38:04.550Z,10.82
2023-03-24T08:40:35.476Z,14.18
2023-03-24T08:43:08.862Z,15.80
2023-03-24T08:45:36.956Z,15.32
2023-03-24T08:48:06.449Z,15.60
2023-03-24T08:50:36.822Z,11.93
2023-03-24T08:53:04.707Z,16.23
2023-03-24T08:55:34.899Z,11.93
2023-03-24T08:58:05.543Z,10.13
2023-03-24T09:00:32.676Z,12.80
2023-03-24T09:03:02.570Z,12.15
2023-03-24T09:05:43.837Z,11.90
2023-03-24T09:08:13.401Z,15.63
2023-03-24T09:10:41.808Z,10.75
2023-03-24T09:13:09.048Z,11.00
2023-03-24T09:15:36.930Z,11.05
2023-03-24T09:18:04.132Z,13.70
2023-03-24T09:20:31.437Z,14.05
2023-03-24T09:22:58.740Z,12.27
2023-03-24T09:25:25.690Z,10.52
2023-03-24T09:27:53.911Z,11.63
2023-03-24T09:30:21.354Z,11.25
2023-03-24T09:32:48.691Z,10.38
2023-03-24T09:35:16.020Z,10.80
2023-03-24T09:37:44.584Z,12.77
2023-03-24T09:40:30.618Z,11.57
2023-03-24T09:43:05.813Z,12.30
2023-03-24T09:45:50.476Z,10.10
2023-03-24T09:48:39.761Z,12.55
2023-03-24T09:51:15.618Z,9.35
2023-03-24T09:54:28.996Z,8.60
2023-03-24T09:56:57.604Z,7.22
2023-03-24T09:59:54.271Z,8.60
2023-03-24T10:02:25.242Z,9.90
2023-03-24T10:04:53.354Z,6.63
2023-03-24T10:07:34.457Z,9.20
2023-03-24T10:10:04.650Z,8.35
2023-03-24T10:12:43.834Z,7.13
2023-03-24T10:15:37.121Z,6.90
2023-03-24T10:18:34.568Z,7.28
2023-03-24T10:21:15.178Z,5.50
2023-03-24T10:23:59.119Z,6.88
2023-03-24T10:26:29.064Z,9.63
2023-03-24T10:29:28.065Z,7.00
2023-03-24T10:32:04.079Z,5.80
2023-03-24T10:34:34.464Z,7.20
2023-03-24T10:37:04.584Z,5.28
2023-03-24T10:39:44.123Z,6.50
2023-03-24T10:42:27.028Z,7.60
2023-03-24T10:44:54.357Z,6.95
2023-03-24T10:47:33.068Z,10.88
2023-03-24T10:50:14.766Z,9.35
2023-03-24T10:52:50.785Z,10.82
2023-03-24T10:55:21.417Z,5.47
2023-03-24T10:57:51.526Z,8.10
2023-03-24T11:00:26.753Z,6.30
2023-03-24T11:03:09.037Z,7.75
2023-03-24T11:05:38.963Z,8.55
2023-03-24T11:08:18.395Z,8.52
2023-03-24T11:10:45.271Z,6.10
2023-03-24T11:13:26.806Z,5.22
2023-03-24T11:16:15.654Z,8.05
2023-03-24T11:18:58.619Z,4.38
2023-03-24T11:21:28.339Z,4.53
2023-03-24T11:24:02.802Z,5.22
2023-03-24T11:26:38.608Z,4.40
2023-03-24T11:29:17.633Z,5.93
2023-03-24T11:32:05.719Z,7.18
2023-03-24T11:34:39.076Z,4.30
2023-03-24T11:37:23.604Z,8.10
2023-03-24T11:40:13.599Z,10.82
2023-03-24T11:42:58.889Z,4.45
2023-03-24T11:45:34.946Z,5.22
2023-03-24T11:48:05.261Z,7.85
2023-03-24T11:50:40.073Z,4.78
2023-03-24T11:53:12.223Z,4.68
2023-03-24T11:55:51.350Z,5.13
2023-03-24T11:58:26.776Z,4.93
2023-03-24T12:01:21.662Z,5.07
2023-03-24T12:04:06.797Z,6.20
2023-03-24T12:07:29.560Z,5.22
2023-03-24T12:10:17.789Z,3.05
2023-03-24T12:13:07.066Z,3.20
2023-03-24T12:15:57.338Z,2.17
2023-03-24T12:18:49.383Z,3.33
2023-03-24T12:21:43.682Z,3.90
2023-03-24T12:24:22.997Z,3.55
2023-03-24T12:26:55.188Z,5.50
2023-03-24T12:30:00.157Z,3.63
2023-03-24T12:32:37.846Z,3.85
2023-03-24T12:35:28.845Z,5.95
2023-03-24T12:38:21.305Z,3.30
2023-03-24T12:41:17.590Z,3.35
2023-03-24T12:43:50.258Z,4.15
2023-03-24T12:46:46.676Z,3.33
2023-03-24T12:49:32.650Z,3.78
2023-03-24T12:52:37.414Z,3.42
2023-03-24T12:55:08.377Z,3.28
2023-03-24T12:57:48.590Z,3.28
2023-03-24T13:00:36.582Z,4.47
2023-03-24T13:03:31.798Z,2.75
2023-03-24T13:06:16.886Z,2.95
2023-03-24T13:08:49.784Z,2.53
2023-03-24T13:11:32.272Z,3.28
2023-03-24T13:14:03.973Z,4.72
2023-03-24T13:16:36.334Z,2.42
2023-03-24T13:19:03.991Z,4.03
2023-03-24T13:21:35.250Z,4.07
2023-03-24T13:24:14.489Z,2.67
2023-03-24T13:29:49.472Z,2.50
2023-03-24T13:32:24.099Z,8.68
2023-03-24T13:35:18.270Z,3.03
2023-03-24T13:37:58.042Z,7.07
2023-03-24T13:40:28.885Z,3.75
2023-03-24T13:42:59.879Z,2.67
2023-03-24T13:45:39.507Z,5.25
2023-03-24T13:48:07.128Z,5.55
2023-03-24T13:50:41.701Z,3.92
2023-03-24T13:53:18.208Z,2.10
2023-03-24T13:55:52.660Z,3.88
2023-03-24T13:58:28.766Z,1.98
2023-03-24T14:01:09.267Z,4.05
2023-03-24T14:03:43.385Z,3.80
2023-03-24T14:06:48.041Z,2.47
2023-03-24T14:09:34.519Z,2.13
2023-03-24T14:12:08.415Z,2.85
2023-03-24T14:14:57.185Z,2.22
2023-03-24T14:17:30.356Z,11.32
2023-03-24T14:20:09.224Z,3.03
2023-03-24T14:22:41.547Z,5.68
2023-03-24T14:25:23.676Z,3.17
2023-03-24T14:28:08.255Z,4.95
2023-03-24T14:30:44.686Z,4.88
2023-03-24T14:33:25.670Z,4.25
2023-03-24T14:36:02.246Z,3.13
2023-03-24T14:38:29.170Z,6.05
2023-03-24T14:41:06.284Z,3.95
2023-03-24T14:43:41.834Z,3.30
2023-03-24T14:46:21.416Z,2.50
2023-03-24T14:49:23.585Z,2.75
2023-03-24T14:52:16.562Z,5.93
2023-03-24T14:55:01.221Z,4.05
2023-03-24T14:57:41.553Z,2.42
2023-03-24T15:00:42.252Z,5.00
2023-03-24T15:03:11.557Z,5.88
2023-03-24T15:05:38.986Z,5.03
2023-03-24T15:08:06.266Z,4.13
2023-03-24T15:11:07.781Z,5.95
2023-03-24T15:13:34.678Z,10.10
2023-03-24T15:16:27.778Z,8.45
2023-03-24T15:19:01.937Z,4.88
2023-03-24T15:21:37.436Z,5.57
2023-03-24T15:24:29.543Z,5.15
2023-03-24T15:27:20.849Z,10.73
2023-03-24T15:29:57.911Z,6.43
2023-03-24T15:32:28.078Z,8.52
2023-03-24T15:34:58.986Z,8.23
2023-03-24T15:37:40.604Z,5.78
2023-03-24T15:40:30.604Z,6.07
2023-03-24T15:43:17.450Z,5.82
2023-03-24T15:45:51.068Z,5.50
2023-03-24T15:48:51.555Z,6.50
2023-03-24T15:51:18.727Z,6.53
2023-03-24T15:54:04.879Z,5.60
2023-03-24T15:56:32.348Z,7.38
2023-03-24T15:59:16.100Z,7.22
2023-03-24T16:01:45.134Z,5.03
2023-03-24T16:04:15.948Z,5.78
2023-03-24T16:06:49.495Z,6.05
2023-03-24T16:09:27.954Z,6.28
2023-03-24T16:11:55.313Z,4.85
2023-03-24T16:14:27.436Z,9.35
2023-03-24T16:17:00.177Z,8.13
2023-03-24T16:19:28.044Z,8.98
2023-03-24T16:21:55.390Z,13.93
2023-03-24T16:24:23.788Z,8.73
2023-03-24T16:26:50.820Z,13.02
2023-03-24T16:29:22.709Z,9.50
2023-03-24T16:32:01.289Z,10.48
2023-03-24T16:34:28.483Z,8.93
2023-03-24T16:36:56.705Z,8.52
2023-03-24T16:39:29.632Z,10.93
2023-03-24T16:41:56.802Z,6.40
2023-03-24T16:44:24.512Z,7.00
2023-03-24T16:46:58.781Z,10.70
2023-03-24T17:09:08.676Z,10.75
2023-03-24T17:11:48.117Z,14.43
2023-03-24T17:15:06.643Z,10.85
2023-03-24T17:18:27.600Z,10.18
2023-03-24T17:21:10.526Z,20.88
2023-03-24T17:23:37.505Z,9.82
2023-03-24T17:26:05.326Z,11.25
2023-03-24T17:28:32.423Z,10.10
2023-03-24T17:30:59.465Z,9.52
2023-03-24T17:33:26.434Z,7.88
2023-03-24T17:35:54.710Z,6.88
2023-03-24T17:38:21.572Z,6.70
2023-03-24T17:40:48.760Z,7.47
2023-03-24T17:43:15.998Z,7.20
2023-03-24T17:45:42.868Z,7.75
2023-03-24T17:48:10.026Z,7.78
2023-03-24T17:50:37.125Z,7.95
2023-03-24T17:53:04.028Z,9.82
2023-03-24T17:55:31.142Z,9.23
2023-03-24T17:57:58.459Z,10.35
2023-03-24T18:00:25.410Z,11.15
2023-03-24T18:02:52.893Z,11.20
2023-03-24T18:05:20.313Z,10.00
2023-03-24T18:07:47.443Z,10.35
2023-03-24T18:10:17.494Z,14.40
2023-03-24T18:12:44.558Z,9.98
2023-03-24T18:15:12.392Z,12.13
2023-03-24T18:17:39.622Z,10.63
2023-03-24T18:20:28.103Z,12.27
2023-03-24T18:22:55.218Z,11.27
2023-03-24T18:25:22.297Z,14.00
2023-03-24T18:27:49.838Z,12.43
2023-03-24T18:30:25.185Z,10.48
2023-03-24T18:32:52.144Z,10.48
2023-03-24T18:35:24.713Z,8.93
2023-03-24T18:37:52.025Z,8.30
2023-03-24T18:40:19.018Z,6.53
2023-03-24T18:59:01.250Z,9.98
2023-03-24T19:01:33.406Z,9.30
2023-03-24T19:04:00.377Z,7.30
2023-03-24T19:06:31.474Z,6.03
2023-03-24T19:08:59.694Z,10.82
2023-03-24T19:11:26.842Z,5.60
2023-03-24T19:13:56.821Z,7.30
2023-03-24T19:16:27.723Z,5.75
2023-03-24T19:18:58.129Z,5.68
2023-03-24T19:21:25.717Z,6.38
2023-03-24T19:23:59.892Z,6.32
2023-03-24T19:26:26.694Z,7.20
2023-03-24T19:28:53.775Z,9.00
2023-03-24T19:31:21.296Z,5.97
2023-03-24T19:33:52.586Z,7.88
2023-03-24T19:36:20.105Z,6.70
2023-03-24T19:38:47.124Z,8.18
2023-03-24T19:41:15.288Z,9.85
2023-03-24T19:43:42.538Z,5.82
2023-03-24T19:46:12.349Z,10.25
2023-03-24T19:48:39.277Z,6.80
2023-03-24T19:51:06.403Z,11.40
2023-03-24T19:53:33.869Z,9.75
2023-03-24T19:56:08.591Z,9.63
2023-03-24T19:58:36.182Z,7.85
2023-03-24T20:01:03.255Z,6.80
2023-03-24T20:03:30.297Z,7.72
2023-03-24T20:06:03.398Z,5.70
2023-03-24T20:08:33.217Z,7.95
2023-03-24T20:11:34.728Z,10.43
2023-03-24T20:14:20.056Z,11.45
2023-03-24T20:19:41.819Z,7.65
2023-03-24T20:22:08.738Z,7.72
2023-03-24T20:24:38.652Z,9.95
2023-03-24T20:27:06.928Z,9.23
2023-03-24T20:29:34.091Z,9.93
2023-03-24T20:32:00.906Z,8.35
2023-03-24T20:34:28.282Z,8.55
2023-03-24T20:36:55.202Z,8.32
2023-03-24T20:39:22.808Z,9.70
2023-03-24T20:41:50.145Z,7.53
2023-03-24T20:57:47.997Z,8.05
2023-03-24T21:00:18.268Z,6.07
2023-03-24T21:02:48.299Z,7.43
2023-03-24T21:05:40.909Z,5.68
2023-03-24T21:08:45.298Z,6.85
2023-03-24T21:11:39.900Z,6.45
2023-03-24T21:14:13.292Z,5.35
2023-03-24T21:23:12.112Z,6.75
2023-03-24T21:26:09.928Z,6.22
2023-03-24T22:13:19.464Z,7.10
2023-03-24T22:15:55.376Z,5.57
2023-03-24T22:21:21.193Z,8.48
2023-03-24T22:23:50.744Z,5.18
2023-03-24T22:26:20.966Z,4.47
2023-03-24T22:28:51.693Z,5.10
2023-03-24T22:31:20.497Z,4.80
2023-03-24T22:34:10.973Z,5.00
2023-03-24T22:36:39.260Z,4.65
2023-03-24T22:53:12.344Z,5.03
2023-03-24T22:55:42.275Z,6.55
2023-03-24T22:58:41.722Z,5.05
2023-03-24T23:01:15.708Z,7.38
2023-03-24T23:04:43.508Z,6.80
2023-03-24T23:07:10.805Z,7.80
2023-03-24T23:19:14.295Z,6.32
2023-03-24T23:21:49.103Z,5.65
2023-03-24T23:24:16.666Z,4.70
2023-03-24T23:27:07.434Z,5.38
2023-03-24T23:29:34.599Z,8.30
2023-03-24T23:33:06.530Z,5.85
2023-03-24T23:35:54.777Z,8.75
2023-03-24T23:38:34.449Z,5.03
2023-03-24T23:41:08.558Z,6.70
2023-03-24T23:43:40.321Z,6.65
2023-03-24T23:46:13.755Z,7.20
2023-03-24T23:48:44.148Z,9.63
2023-03-24T23:51:12.704Z,5.45
2023-03-24T23:53:45.312Z,5.70
2023-03-24T23:56:14.609Z,9.90
2023-03-24T23:58:42.933Z,7.20
